createdAt,value
2023-05-25T00:01:43.969Z,17.32
2023-05-25T00:04:17.436Z,17.27
2023-05-25T00:06:47.465Z,17.25
2023-05-25T00:09:15.518Z,17.25
2023-05-25T00:11:43.548Z,17.27
2023-05-25T00:14:12.822Z,17.29
2023-05-25T00:16:41.153Z,17.29
2023-05-25T00:19:10.782Z,17.30
2023-05-25T00:21:39.231Z,17.32
2023-05-25T00:24:07.365Z,17.29
2023-05-25T00:26:36.379Z,17.24
2023-05-25T00:29:04.457Z,17.19
2023-05-25T00:31:35.615Z,17.17
2023-05-25T00:34:03.713Z,17.19
2023-05-25T00:36:31.616Z,17.19
2023-05-25T00:38:59.565Z,17.19
2023-05-25T00:41:27.564Z,17.20
2023-05-25T00:43:55.512Z,17.20
2023-05-25T00:46:23.522Z,17.20
2023-05-25T00:48:53.723Z,17.21
2023-05-25T00:51:21.713Z,17.20
2023-05-25T00:53:49.712Z,17.21
2023-05-25T00:56:20.767Z,17.14
2023-05-25T00:58:48.708Z,17.06
2023-05-25T01:01:17.081Z,16.98
2023-05-25T01:03:46.782Z,16.92
2023-05-25T01:06:17.099Z,16.85
2023-05-25T01:08:51.038Z,16.75
2023-05-25T01:11:18.994Z,16.68
2023-05-25T01:13:46.892Z,16.61
2023-05-25T01:16:15.241Z,16.50
2023-05-25T01:18:43.168Z,16.61
2023-05-25T01:21:18.169Z,16.59
2023-05-25T01:23:48.501Z,16.56
2023-05-25T01:26:17.924Z,16.57
2023-05-25T01:28:48.346Z,16.58
2023-05-25T01:31:16.405Z,16.59
2023-05-25T01:33:44.638Z,16.56
2023-05-25T01:36:14.172Z,16.54
2023-05-25T01:38:42.143Z,16.52
2023-05-25T01:41:10.038Z,16.45
2023-05-25T01:43:37.960Z,16.42
2023-05-25T01:46:11.197Z,16.34
2023-05-25T01:48:41.957Z,16.40
2023-05-25T01:51:16.435Z,16.43
2023-05-25T01:53:45.183Z,16.38
2023-05-25T01:56:13.100Z,16.35
2023-05-25T01:58:41.889Z,16.35
2023-05-25T02:01:09.955Z,16.32
2023-05-25T02:03:38.032Z,16.29
2023-05-25T02:06:06.116Z,16.27
2023-05-25T02:08:35.450Z,16.19
2023-05-25T02:11:03.424Z,16.09
2023-05-25T02:13:31.383Z,15.98
2023-05-25T02:15:59.333Z,15.91
2023-05-25T02:18:27.824Z,15.92
2023-05-25T02:20:56.232Z,15.93
2023-05-25T02:23:24.100Z,15.94
2023-05-25T02:25:53.442Z,16.02
2023-05-25T02:28:21.519Z,16.03
2023-05-25T02:30:49.446Z,16.03
2023-05-25T02:33:18.809Z,16.06
2023-05-25T02:35:46.981Z,16.09
2023-05-25T02:38:15.179Z,16.06
2023-05-25T02:40:43.094Z,15.99
2023-05-25T02:43:12.433Z,15.91
2023-05-25T02:45:40.378Z,15.89
2023-05-25T02:48:08.344Z,15.89
2023-05-25T02:50:37.095Z,15.89
2023-05-25T02:53:05.293Z,15.91
2023-05-25T02:55:33.369Z,15.93
2023-05-25T02:58:01.736Z,15.94
2023-05-25T03:00:31.934Z,15.93
2023-05-25T03:02:59.876Z,15.95
2023-05-25T03:05:27.920Z,15.92
2023-05-25T03:07:55.927Z,15.86
2023-05-25T03:10:23.839Z,15.79
2023-05-25T03:12:51.747Z,15.73
2023-05-25T03:15:19.646Z,15.71
2023-05-25T03:17:48.962Z,15.70
2023-05-25T03:20:17.009Z,15.71
2023-05-25T03:22:44.956Z,15.75
2023-05-25T03:25:13.180Z,15.79
2023-05-25T03:27:41.269Z,15.81
2023-05-25T03:30:10.240Z,15.78
2023-05-25T03:32:38.164Z,15.78
2023-05-25T03:35:08.722Z,15.82
2023-05-25T03:37:36.663Z,15.81
2023-05-25T03:40:05.657Z,15.81
2023-05-25T03:42:33.574Z,15.83
2023-05-25T03:45:01.478Z,15.79
2023-05-25T03:47:29.387Z,15.70
2023-05-25T03:49:57.366Z,15.62
2023-05-25T03:52:26.672Z,15.58
2023-05-25T03:54:54.573Z,15.53
2023-05-25T03:57:22.448Z,15.52
2023-05-25T03:59:50.381Z,15.48
2023-05-25T04:02:18.365Z,15.46
2023-05-25T04:04:46.423Z,15.42
2023-05-25T04:07:14.327Z,15.42
2023-05-25T04:09:43.576Z,15.46
2023-05-25T04:12:12.069Z,15.48
2023-05-25T04:14:39.988Z,15.52
2023-05-25T04:17:07.978Z,15.53
2023-05-25T04:19:35.964Z,15.50
2023-05-25T04:22:04.404Z,15.46
2023-05-25T04:24:34.286Z,15.38
2023-05-25T04:27:03.548Z,15.34
2023-05-25T04:29:32.083Z,15.28
2023-05-25T04:32:00.091Z,15.31
2023-05-25T04:34:29.676Z,15.32
2023-05-25T04:36:58.090Z,15.32
2023-05-25T04:39:26.092Z,15.29
2023-05-25T04:41:54.088Z,15.27
2023-05-25T04:44:24.237Z,15.29
2023-05-25T04:46:52.566Z,15.33
2023-05-25T04:49:20.522Z,15.37
2023-05-25T04:51:48.435Z,15.40
2023-05-25T04:54:16.596Z,15.45
2023-05-25T04:56:44.623Z,15.47
2023-05-25T04:59:12.537Z,15.54
2023-05-25T05:01:42.285Z,15.60
2023-05-25T05:04:10.230Z,15.68
2023-05-25T05:06:38.831Z,15.75
2023-05-25T05:09:06.712Z,15.83
2023-05-25T05:11:34.583Z,15.92
2023-05-25T05:14:02.479Z,16.00
2023-05-25T05:16:34.351Z,16.09
2023-05-25T05:19:03.688Z,16.35
2023-05-25T05:21:32.706Z,16.73
2023-05-25T05:24:00.680Z,17.07
2023-05-25T05:26:28.844Z,17.18
2023-05-25T05:28:56.771Z,17.24
2023-05-25T05:31:25.389Z,17.49
2023-05-25T05:33:53.373Z,17.78
2023-05-25T05:36:22.702Z,17.95
2023-05-25T05:38:50.586Z,17.95
2023-05-25T05:41:18.557Z,17.84
2023-05-25T05:43:47.266Z,17.75
2023-05-25T05:46:15.680Z,17.66
2023-05-25T05:48:45.822Z,17.56
2023-05-25T05:51:13.718Z,17.50
2023-05-25T05:53:43.227Z,17.46
2023-05-25T05:56:18.541Z,17.47
2023-05-25T05:58:48.800Z,17.48
2023-05-25T06:01:16.924Z,17.51
2023-05-25T06:03:44.898Z,17.53
2023-05-25T06:06:15.744Z,17.60
2023-05-25T06:08:45.149Z,17.67
2023-05-25T06:11:13.143Z,17.76
2023-05-25T06:13:41.231Z,17.87
2023-05-25T06:16:09.851Z,17.96
2023-05-25T06:18:37.746Z,18.06
2023-05-25T06:21:05.924Z,18.15
2023-05-25T06:23:33.903Z,18.20
2023-05-25T06:26:06.301Z,18.28
2023-05-25T06:28:34.230Z,18.34
2023-05-25T06:31:02.154Z,18.41
2023-05-25T06:33:30.071Z,18.49
2023-05-25T06:36:00.667Z,18.60
2023-05-25T06:38:29.694Z,18.68
2023-05-25T06:41:02.483Z,18.76
2023-05-25T06:43:32.526Z,18.83
2023-05-25T06:46:00.768Z,18.90
2023-05-25T06:48:28.826Z,18.97
2023-05-25T06:50:56.798Z,19.06
2023-05-25T06:53:24.727Z,19.11
2023-05-25T06:55:52.707Z,19.14
2023-05-25T06:58:20.697Z,19.16
2023-05-25T07:00:50.174Z,19.22
2023-05-25T07:03:18.270Z,19.29
2023-05-25T07:05:46.507Z,19.33
2023-05-25T07:08:14.970Z,19.38
2023-05-25T07:10:42.992Z,19.41
2023-05-25T07:13:11.308Z,19.47
2023-05-25T07:15:39.339Z,19.50
2023-05-25T07:18:12.530Z,19.52
2023-05-25T07:20:42.227Z,19.59
2023-05-25T07:23:11.162Z,19.65
2023-05-25T07:25:39.201Z,19.71
2023-05-25T07:28:07.128Z,19.79
2023-05-25T07:30:35.185Z,19.84
2023-05-25T07:33:03.533Z,19.91
2023-05-25T07:35:35.322Z,19.96
2023-05-25T07:38:04.498Z,20.07
2023-05-25T07:40:32.598Z,20.14
2023-05-25T07:43:00.920Z,20.18
2023-05-25T07:45:29.346Z,20.24
2023-05-25T07:47:57.557Z,20.30
2023-05-25T07:50:25.788Z,20.38
2023-05-25T07:52:55.288Z,20.39
2023-05-25T07:55:23.429Z,20.47
2023-05-25T07:57:51.535Z,20.56
2023-05-25T08:00:20.673Z,20.64
2023-05-25T08:02:48.778Z,20.66
2023-05-25T08:05:17.061Z,20.69
2023-05-25T08:07:45.875Z,20.76
2023-05-25T08:10:15.375Z,20.83
2023-05-25T08:12:49.710Z,20.87
2023-05-25T08:15:18.976Z,20.90
2023-05-25T08:17:51.083Z,20.98
2023-05-25T08:20:19.242Z,21.05
2023-05-25T08:22:47.308Z,21.10
2023-05-25T08:25:16.857Z,21.18
2023-05-25T08:27:44.788Z,21.27
2023-05-25T08:30:13.471Z,21.33
2023-05-25T08:32:41.399Z,21.37
2023-05-25T08:35:10.170Z,21.48
2023-05-25T08:37:38.304Z,21.58
2023-05-25T08:40:08.053Z,21.68
2023-05-25T08:42:37.555Z,21.78
2023-05-25T08:45:06.240Z,21.87
2023-05-25T08:47:34.460Z,21.95
2023-05-25T08:50:03.922Z,22.05
2023-05-25T08:52:33.226Z,22.16
2023-05-25T08:55:02.312Z,22.29
2023-05-25T08:57:32.982Z,22.37
2023-05-25T09:00:07.402Z,22.42
2023-05-25T09:02:37.297Z,22.48
2023-05-25T09:05:05.681Z,22.59
2023-05-25T09:07:33.656Z,22.67
2023-05-25T09:10:01.654Z,22.76
2023-05-25T09:12:30.530Z,22.81
2023-05-25T09:14:58.685Z,22.91
2023-05-25T09:17:28.713Z,22.99
2023-05-25T09:19:57.561Z,23.06
2023-05-25T09:22:25.648Z,23.13
2023-05-25T09:24:53.574Z,23.21
2023-05-25T09:27:22.954Z,23.24
2023-05-25T09:29:51.358Z,23.29
2023-05-25T09:32:20.115Z,23.32
2023-05-25T09:34:49.755Z,23.38
2023-05-25T09:37:19.666Z,23.45
2023-05-25T09:39:48.959Z,23.54
2023-05-25T09:42:17.322Z,23.63
2023-05-25T09:44:46.520Z,23.68
2023-05-25T09:47:16.741Z,23.71
2023-05-25T09:49:47.705Z,23.77
2023-05-25T09:52:17.416Z,23.81
2023-05-25T09:54:46.529Z,23.89
2023-05-25T09:57:14.736Z,23.90
2023-05-25T09:59:43.362Z,23.96
2023-05-25T10:02:11.796Z,24.01
2023-05-25T10:04:40.196Z,24.12
2023-05-25T10:07:09.081Z,24.24
2023-05-25T10:09:41.002Z,24.33
2023-05-25T10:12:09.221Z,24.38
2023-05-25T10:14:39.029Z,24.45
2023-05-25T10:17:07.879Z,24.50
2023-05-25T10:19:41.526Z,24.59
2023-05-25T10:22:16.884Z,24.69
2023-05-25T10:24:49.686Z,24.75
2023-05-25T10:27:27.065Z,24.76
2023-05-25T10:29:56.388Z,24.82
2023-05-25T10:32:24.941Z,24.83
2023-05-25T10:34:53.561Z,24.91
2023-05-25T10:37:21.679Z,25.01
2023-05-25T10:39:51.166Z,25.08
2023-05-25T10:42:19.300Z,25.03
2023-05-25T10:44:47.704Z,24.97
2023-05-25T10:47:16.124Z,24.93
2023-05-25T10:49:55.178Z,25.02
2023-05-25T10:52:23.493Z,25.08
2023-05-25T10:54:53.119Z,25.24
2023-05-25T10:57:22.084Z,25.43
2023-05-25T10:59:50.867Z,25.60
2023-05-25T11:02:23.357Z,25.69
2023-05-25T11:04:51.873Z,25.67
2023-05-25T11:07:20.094Z,25.74
2023-05-25T11:09:59.603Z,25.91
2023-05-25T11:12:27.863Z,25.99
2023-05-25T11:15:16.424Z,25.92
2023-05-25T11:17:49.204Z,25.89
2023-05-25T11:20:25.312Z,26.04
2023-05-25T11:22:54.213Z,26.31
2023-05-25T11:25:39.906Z,26.61
2023-05-25T11:28:09.018Z,26.49
2023-05-25T11:30:37.504Z,26.48
2023-05-25T11:33:07.992Z,26.59
2023-05-25T11:35:37.469Z,26.86
2023-05-25T11:38:07.447Z,27.24
2023-05-25T11:40:37.531Z,27.62
2023-05-25T11:43:09.143Z,28.00
2023-05-25T11:45:38.549Z,28.29
2023-05-25T11:48:07.784Z,28.47
2023-05-25T11:50:36.270Z,28.73
2023-05-25T11:53:07.346Z,29.03
2023-05-25T11:55:35.520Z,29.37
2023-05-25T11:58:03.649Z,29.75
2023-05-25T12:00:33.377Z,30.04
2023-05-25T12:03:02.310Z,30.38
2023-05-25T12:05:38.962Z,30.72
2023-05-25T12:08:07.101Z,31.07
2023-05-25T12:10:35.253Z,31.33
2023-05-25T12:13:04.709Z,31.54
2023-05-25T12:15:34.317Z,31.65
2023-05-25T12:18:02.573Z,31.74
2023-05-25T12:20:30.807Z,31.88
2023-05-25T12:22:59.098Z,32.01
2023-05-25T12:25:38.600Z,32.10
2023-05-25T12:28:14.985Z,32.16
2023-05-25T12:30:45.545Z,32.19
2023-05-25T12:33:14.947Z,32.26
2023-05-25T12:35:47.641Z,32.05
2023-05-25T12:38:17.838Z,32.04
2023-05-25T12:40:46.324Z,32.18
2023-05-25T12:43:17.621Z,32.31
2023-05-25T12:45:47.468Z,32.35
2023-05-25T12:48:16.369Z,32.50
2023-05-25T12:50:58.409Z,32.78
2023-05-25T12:53:27.332Z,32.95
2023-05-25T12:56:02.007Z,33.10
2023-05-25T12:58:30.604Z,33.23
2023-05-25T13:01:00.249Z,33.43
2023-05-25T13:03:28.317Z,33.65
2023-05-25T13:06:01.435Z,33.68
2023-05-25T13:08:29.731Z,33.75
2023-05-25T13:10:57.865Z,33.82
2023-05-25T13:13:27.098Z,33.88
2023-05-25T13:15:55.087Z,34.02
2023-05-25T13:18:25.164Z,34.04
2023-05-25T13:20:56.431Z,34.04
2023-05-25T13:23:25.569Z,34.10
2023-05-25T13:25:53.988Z,34.27
2023-05-25T13:28:22.123Z,34.50
2023-05-25T13:30:50.150Z,34.66
2023-05-25T13:33:18.271Z,34.80
2023-05-25T13:35:59.099Z,34.94
2023-05-25T13:38:27.624Z,35.07
2023-05-25T13:40:55.702Z,35.08
2023-05-25T13:43:23.802Z,35.16
2023-05-25T13:45:51.875Z,35.16
2023-05-25T13:48:20.093Z,35.28
2023-05-25T13:50:49.478Z,35.52
2023-05-25T13:53:17.731Z,35.68
2023-05-25T13:55:45.875Z,35.73
2023-05-25T13:58:14.369Z,35.76
2023-05-25T14:00:42.594Z,35.78
2023-05-25T14:03:10.792Z,35.86
2023-05-25T14:05:39.078Z,36.00
2023-05-25T14:08:09.174Z,36.14
2023-05-25T14:10:39.212Z,36.15
2023-05-25T14:13:07.432Z,36.19
2023-05-25T14:15:35.559Z,36.17
2023-05-25T14:18:03.744Z,36.34
2023-05-25T14:20:34.142Z,36.53
2023-05-25T14:23:04.249Z,36.54
2023-05-25T14:25:34.197Z,36.69
2023-05-25T14:28:02.251Z,36.74
2023-05-25T14:30:30.155Z,36.55
2023-05-25T14:32:58.817Z,36.24
2023-05-25T14:35:27.139Z,35.87
2023-05-25T14:37:55.236Z,35.70
2023-05-25T14:40:23.298Z,35.81
2023-05-25T14:42:55.957Z,35.89
2023-05-25T14:45:24.354Z,36.10
2023-05-25T14:48:03.928Z,36.30
2023-05-25T14:50:41.967Z,36.60
2023-05-25T14:53:09.928Z,36.66
2023-05-25T14:55:38.357Z,36.76
2023-05-25T14:58:07.984Z,36.72
2023-05-25T15:00:36.265Z,36.52
2023-05-25T15:03:04.285Z,36.31
2023-05-25T15:05:32.372Z,36.22
2023-05-25T15:08:00.711Z,36.21
2023-05-25T15:10:29.807Z,36.31
2023-05-25T15:12:58.163Z,36.23
2023-05-25T15:15:27.614Z,36.27
2023-05-25T15:17:55.822Z,36.23
2023-05-25T15:20:24.128Z,36.31
2023-05-25T15:22:53.934Z,36.27
2023-05-25T15:25:34.436Z,36.16
2023-05-25T15:28:03.435Z,36.04
2023-05-25T15:30:34.186Z,35.79
2023-05-25T15:33:02.370Z,35.76
2023-05-25T15:35:32.573Z,35.84
2023-05-25T15:38:01.291Z,35.92
2023-05-25T15:40:29.750Z,35.86
2023-05-25T15:42:57.853Z,35.79
2023-05-25T15:45:26.573Z,35.74
2023-05-25T15:47:56.124Z,35.70
2023-05-25T15:50:24.204Z,35.89
2023-05-25T15:52:52.261Z,36.07
2023-05-25T15:55:20.808Z,36.39
2023-05-25T15:57:48.922Z,36.55
2023-05-25T16:00:17.555Z,36.58
2023-05-25T16:02:45.850Z,36.58
2023-05-25T16:05:15.367Z,36.69
2023-05-25T16:07:43.550Z,36.87
2023-05-25T16:10:11.877Z,37.07
2023-05-25T16:12:40.144Z,37.18
2023-05-25T16:15:09.012Z,37.29
2023-05-25T16:17:37.157Z,37.31
2023-05-25T16:20:06.750Z,37.27
2023-05-25T16:22:36.566Z,37.24
2023-05-25T16:25:05.013Z,36.93
2023-05-25T16:27:32.972Z,36.97
2023-05-25T16:30:01.174Z,37.27
2023-05-25T16:32:30.046Z,37.36
2023-05-25T16:34:58.274Z,37.27
2023-05-25T16:37:26.481Z,37.33
2023-05-25T16:39:56.060Z,37.50
2023-05-25T16:42:25.291Z,37.56
2023-05-25T16:44:53.497Z,37.51
2023-05-25T16:47:21.747Z,37.45
2023-05-25T16:49:50.220Z,37.43
2023-05-25T16:52:18.466Z,37.58
2023-05-25T16:54:46.621Z,37.69
2023-05-25T16:57:16.413Z,37.76
2023-05-25T16:59:44.338Z,37.75
2023-05-25T17:02:12.468Z,37.67
2023-05-25T17:04:40.576Z,37.58
2023-05-25T17:07:09.203Z,37.50
2023-05-25T17:09:37.830Z,37.49
2023-05-25T17:12:06.647Z,37.34
2023-05-25T17:14:36.323Z,37.20
2023-05-25T17:17:04.394Z,37.02
2023-05-25T17:19:32.529Z,37.03
2023-05-25T17:22:01.265Z,36.86
2023-05-25T17:24:29.338Z,36.55
2023-05-25T17:26:57.725Z,36.38
2023-05-25T17:29:26.338Z,36.41
2023-05-25T17:31:56.140Z,36.34
2023-05-25T17:34:24.786Z,36.13
2023-05-25T17:36:53.029Z,35.58
2023-05-25T17:39:21.190Z,34.57
2023-05-25T17:41:50.188Z,33.39
2023-05-25T17:44:18.401Z,32.36
2023-05-25T17:46:46.612Z,31.50
2023-05-25T17:49:16.087Z,30.79
2023-05-25T17:51:44.364Z,30.35
2023-05-25T17:54:15.383Z,30.11
2023-05-25T17:56:43.305Z,29.92
2023-05-25T17:59:11.293Z,29.76
2023-05-25T18:01:39.947Z,29.48
2023-05-25T18:04:08.615Z,29.32
2023-05-25T18:06:38.212Z,29.24
2023-05-25T18:09:06.446Z,29.20
2023-05-25T18:11:36.620Z,29.41
2023-05-25T18:14:05.092Z,29.85
2023-05-25T18:16:33.299Z,30.37
2023-05-25T18:19:02.066Z,30.91
2023-05-25T18:21:30.237Z,31.40
2023-05-25T18:24:00.058Z,31.81
2023-05-25T18:26:28.345Z,32.12
2023-05-25T18:28:56.366Z,32.21
2023-05-25T18:31:25.056Z,31.73
2023-05-25T18:33:53.319Z,30.89
2023-05-25T18:36:21.634Z,30.08
2023-05-25T18:38:49.769Z,29.33
2023-05-25T18:41:21.466Z,28.65
2023-05-25T18:43:49.943Z,28.09
2023-05-25T18:46:17.995Z,27.65
2023-05-25T18:48:46.365Z,27.32
2023-05-25T18:51:15.554Z,27.06
2023-05-25T18:53:44.692Z,26.78
2023-05-25T18:56:12.862Z,26.52
2023-05-25T18:58:42.491Z,26.29
2023-05-25T19:01:10.972Z,26.10
2023-05-25T19:03:38.986Z,25.89
2023-05-25T19:06:07.340Z,25.71
2023-05-25T19:08:35.712Z,25.54
2023-05-25T19:11:03.818Z,25.37
2023-05-25T19:13:31.811Z,25.20
2023-05-25T19:16:01.320Z,25.06
2023-05-25T19:18:29.638Z,24.90
2023-05-25T19:20:58.335Z,24.74
2023-05-25T19:23:26.311Z,24.61
2023-05-25T19:25:54.351Z,24.51
2023-05-25T19:28:22.333Z,24.40
2023-05-25T19:30:50.685Z,24.29
2023-05-25T19:33:20.118Z,24.24
2023-05-25T19:35:48.309Z,24.18
2023-05-25T19:38:16.669Z,24.13
2023-05-25T19:40:44.768Z,24.07
2023-05-25T19:43:12.795Z,23.99
2023-05-25T19:45:41.180Z,23.97
2023-05-25T19:48:09.366Z,23.95
2023-05-25T19:50:38.961Z,23.95
2023-05-25T19:53:06.856Z,23.96
2023-05-25T19:55:36.780Z,24.00
2023-05-25T19:58:04.749Z,23.95
2023-05-25T20:00:32.714Z,24.01
2023-05-25T20:03:00.905Z,24.01
2023-05-25T20:05:28.999Z,23.97
2023-05-25T20:07:58.618Z,24.03
2023-05-25T20:10:26.617Z,24.07
2023-05-25T20:12:57.126Z,24.07
2023-05-25T20:15:25.516Z,24.04
2023-05-25T20:17:53.684Z,24.01
2023-05-25T20:20:22.081Z,24.00
2023-05-25T20:22:50.302Z,23.96
2023-05-25T20:25:20.216Z,23.96
2023-05-25T20:27:48.144Z,23.92
2023-05-25T20:30:20.430Z,23.88
2023-05-25T20:32:49.321Z,23.80
2023-05-25T20:35:18.225Z,23.70
2023-05-25T20:37:46.570Z,23.65
2023-05-25T20:40:14.725Z,23.59
2023-05-25T20:42:44.064Z,23.56
2023-05-25T20:45:11.982Z,23.52
2023-05-25T20:47:40.257Z,23.46
2023-05-25T20:50:11.585Z,23.43
2023-05-25T20:52:39.625Z,23.38
2023-05-25T20:55:09.060Z,23.35
2023-05-25T20:57:36.956Z,23.28
2023-05-25T21:00:07.166Z,23.22
2023-05-25T21:02:35.181Z,23.21
2023-05-25T21:05:03.194Z,23.19
2023-05-25T21:07:31.252Z,23.17
2023-05-25T21:10:00.182Z,23.15
2023-05-25T21:12:28.114Z,23.12
2023-05-25T21:14:56.647Z,23.09
2023-05-25T21:17:26.041Z,23.04
2023-05-25T21:19:54.060Z,23.00
2023-05-25T21:22:22.170Z,22.93
2023-05-25T21:24:50.240Z,22.91
2023-05-25T21:27:18.460Z,22.82
2023-05-25T21:32:14.160Z,22.79
2023-05-25T21:34:43.419Z,22.75
2023-05-25T21:37:11.337Z,22.67
2023-05-25T21:39:39.365Z,22.59
2023-05-25T21:42:07.841Z,22.54
2023-05-25T21:44:35.695Z,22.48
2023-05-25T21:47:05.098Z,22.42
2023-05-25T21:49:33.035Z,22.36
2023-05-25T21:52:02.702Z,22.32
2023-05-25T21:54:31.086Z,22.28
2023-05-25T21:56:59.119Z,22.25
2023-05-25T21:59:27.026Z,22.26
2023-05-25T22:01:54.984Z,22.31
2023-05-25T22:04:22.925Z,22.27
2023-05-25T22:06:51.137Z,22.34
2023-05-25T22:09:20.519Z,22.35
2023-05-25T22:11:48.415Z,22.32
2023-05-25T22:14:16.391Z,22.29
2023-05-25T22:16:44.363Z,22.32
2023-05-25T22:19:12.239Z,22.31
2023-05-25T22:21:40.274Z,22.27
2023-05-25T22:24:08.526Z,22.27
2023-05-25T22:26:37.770Z,22.26
2023-05-25T22:29:05.753Z,22.26
2023-05-25T22:31:33.775Z,22.24
2023-05-25T22:34:01.805Z,22.22
2023-05-25T22:36:29.842Z,22.19
2023-05-25T22:38:57.811Z,22.17
2023-05-25T22:41:26.544Z,22.15
2023-05-25T22:43:55.969Z,22.16
2023-05-25T22:46:24.353Z,22.14
2023-05-25T22:48:52.322Z,22.20
2023-05-25T22:51:20.268Z,22.21
2023-05-25T22:53:48.198Z,22.23
2023-05-25T22:56:16.080Z,22.21
2023-05-25T22:58:44.001Z,22.18
2023-05-25T23:01:13.283Z,22.16
2023-05-25T23:03:41.524Z,22.13
2023-05-25T23:06:09.587Z,22.15
2023-05-25T23:08:37.502Z,22.13
2023-05-25T23:11:05.456Z,22.14
2023-05-25T23:13:33.318Z,22.13
2023-05-25T23:16:01.220Z,22.12
2023-05-25T23:18:30.528Z,22.13
2023-05-25T23:20:58.446Z,22.14
2023-05-25T23:23:26.350Z,22.15
2023-05-25T23:25:54.887Z,22.15
2023-05-25T23:28:22.850Z,22.17
2023-05-25T23:30:50.798Z,22.16
2023-05-25T23:33:19.422Z,22.13
2023-05-25T23:35:48.683Z,22.10
2023-05-25T23:38:16.917Z,22.08
2023-05-25T23:40:45.057Z,22.03
2023-05-25T23:43:13.072Z,22.00
2023-05-25T23:45:40.972Z,21.99
2023-05-25T23:48:08.956Z,21.98
2023-05-25T23:50:36.979Z,21.98
2023-05-25T23:53:06.228Z,22.00
2023-05-25T23:55:34.149Z,22.00
2023-05-25T23:58:02.123Z,22.01
